Terminal Aerodrome Forecast
Issued by NWS Memphis, TN

Home | Current Version | Previous Version | Text Only | Print | Product List | Glossary On
Versions: 1 2 3 4 5 6 7 8 9 10 11 12 13 14 15 16 17 18
000
FTUS44 KMEG 282336
TAFMKL
TAF
KMKL 282336Z 2900/2924 18005KT P6SM SCT120 BKN250
     FM290100 00000KT P6SM SCT250
      TEMPO 2910/2913 4SM BR SCT005
     FM291400 24003KT P6SM SCT020
     FM291800 27006KT P6SM SCT045=

USA.gov is the U.S. government's official web portal to all federal, state and local government web resources and services.